createdAt,value
2023-04-07T00:00:13.650Z,8.80
2023-04-07T00:02:42.424Z,8.70
2023-04-07T00:05:11.053Z,8.70
2023-04-07T00:07:48.515Z,8.70
2023-04-07T00:10:22.452Z,8.70
2023-04-07T00:12:49.092Z,8.70
2023-04-07T00:15:15.747Z,8.70
2023-04-07T00:17:42.447Z,8.80
2023-04-07T00:20:09.361Z,8.70
2023-04-07T00:22:35.964Z,8.70
2023-04-07T00:25:02.534Z,8.70
2023-04-07T00:27:29.178Z,8.80
2023-04-07T00:29:55.831Z,8.70
2023-04-07T00:32:22.940Z,8.80
2023-04-07T00:34:49.687Z,8.70
2023-04-07T00:37:16.483Z,8.70
2023-04-07T00:39:43.125Z,8.70
2023-04-07T00:42:10.228Z,8.70
2023-04-07T00:44:36.893Z,8.70
2023-04-07T00:47:03.698Z,8.70
2023-04-07T00:49:31.579Z,8.60
2023-04-07T00:51:58.973Z,8.70
2023-04-07T00:54:26.065Z,8.60
2023-04-07T00:56:53.672Z,8.60
2023-04-07T00:59:21.864Z,8.70
2023-04-07T01:02:02.756Z,8.70
2023-04-07T01:04:44.487Z,8.60
2023-04-07T01:07:41.280Z,8.60
2023-04-07T01:10:13.377Z,8.60
2023-04-07T01:12:56.777Z,8.60
2023-04-07T01:15:27.507Z,8.60
2023-04-07T01:18:09.122Z,8.60
2023-04-07T01:20:37.791Z,8.60
2023-04-07T01:23:08.073Z,8.50
2023-04-07T01:26:10.235Z,8.50
2023-04-07T01:29:01.918Z,8.50
2023-04-07T01:31:30.281Z,8.50
2023-04-07T01:33:59.605Z,8.50
2023-04-07T01:36:28.556Z,8.50
2023-04-07T01:38:55.912Z,8.50
2023-04-07T01:41:24.371Z,8.50
2023-04-07T01:43:52.543Z,8.50
2023-04-07T01:46:20.230Z,8.50
2023-04-07T01:48:48.289Z,8.50
2023-04-07T01:51:18.892Z,8.50
2023-04-07T01:53:49.633Z,8.50
2023-04-07T01:56:16.762Z,8.50
2023-04-07T01:58:43.440Z,8.40
2023-04-07T02:01:10.481Z,8.40
2023-04-07T02:03:44.818Z,8.50
2023-04-07T02:06:18.033Z,8.50
2023-04-07T02:08:49.392Z,8.40
2023-04-07T02:11:18.570Z,8.50
2023-04-07T02:13:46.278Z,8.40
2023-04-07T02:16:13.820Z,8.50
2023-04-07T02:18:41.629Z,8.50
2023-04-07T02:21:09.303Z,8.50
2023-04-07T02:23:36.186Z,8.50
2023-04-07T02:26:02.890Z,8.50
2023-04-07T02:28:29.533Z,8.50
2023-04-07T02:30:56.281Z,8.50
2023-04-07T02:33:22.922Z,8.50
2023-04-07T02:35:49.538Z,8.50
2023-04-07T02:38:16.350Z,8.50
2023-04-07T02:40:42.963Z,8.50
2023-04-07T02:43:09.557Z,8.50
2023-04-07T02:45:36.152Z,8.50
2023-04-07T02:48:02.827Z,8.50
2023-04-07T02:50:29.521Z,8.50
2023-04-07T02:52:56.696Z,8.50
2023-04-07T02:55:23.391Z,8.50
2023-04-07T02:57:50.304Z,8.50
2023-04-07T03:00:17.051Z,8.50
2023-04-07T03:02:43.795Z,8.50
2023-04-07T03:05:10.756Z,8.50
2023-04-07T03:07:37.361Z,8.50
2023-04-07T03:10:04.116Z,8.50
2023-04-07T03:12:30.846Z,8.50
2023-04-07T03:14:57.529Z,8.50
2023-04-07T03:17:24.333Z,8.50
2023-04-07T03:19:51.909Z,8.60
2023-04-07T03:22:18.562Z,8.50
2023-04-07T03:24:45.595Z,8.50
2023-04-07T03:27:12.236Z,8.50
2023-04-07T03:29:38.946Z,8.50
2023-04-07T03:32:05.767Z,8.50
2023-04-07T03:34:32.450Z,8.50
2023-04-07T03:36:59.104Z,8.50
2023-04-07T03:39:25.755Z,8.50
2023-04-07T03:41:52.471Z,8.40
2023-04-07T03:44:19.106Z,8.40
2023-04-07T03:46:47.031Z,8.50
2023-04-07T03:49:14.373Z,8.50
2023-04-07T03:51:40.985Z,8.50
2023-04-07T03:54:07.656Z,8.60
2023-04-07T03:56:34.300Z,8.50
2023-04-07T03:59:01.057Z,8.50
2023-04-07T04:01:27.794Z,8.50
2023-04-07T04:03:54.746Z,8.50
2023-04-07T04:06:21.612Z,8.40
2023-04-07T04:08:48.229Z,8.40
2023-04-07T04:11:14.914Z,8.50
2023-04-07T04:13:41.663Z,8.50
2023-04-07T04:16:08.387Z,8.50
2023-04-07T04:18:35.020Z,8.40
2023-04-07T04:21:01.653Z,8.40
2023-04-07T04:23:28.236Z,8.40
2023-04-07T04:25:54.932Z,8.40
2023-04-07T04:28:21.670Z,8.50
2023-04-07T04:30:48.377Z,8.40
2023-04-07T04:33:14.995Z,8.50
2023-04-07T04:35:43.165Z,8.40
2023-04-07T04:38:10.840Z,8.40
2023-04-07T04:40:37.588Z,8.40
2023-04-07T04:43:07.205Z,8.50
2023-04-07T04:45:33.930Z,8.50
2023-04-07T04:48:00.639Z,8.50
2023-04-07T04:50:27.570Z,8.50
2023-04-07T04:52:56.335Z,8.50
2023-04-07T04:55:23.036Z,8.40
2023-04-07T04:57:49.669Z,8.40
2023-04-07T05:00:16.616Z,8.40
2023-04-07T05:02:43.647Z,8.40
2023-04-07T05:05:10.757Z,8.40
2023-04-07T05:07:37.471Z,8.40
2023-04-07T05:10:04.673Z,8.40
2023-04-07T05:12:31.463Z,8.40
2023-04-07T05:14:58.222Z,8.50
2023-04-07T05:17:25.015Z,8.40
2023-04-07T05:19:51.800Z,8.40
2023-04-07T05:22:18.500Z,8.40
2023-04-07T05:24:45.296Z,8.50
2023-04-07T05:27:12.125Z,8.40
2023-04-07T05:29:38.761Z,8.40
2023-04-07T05:32:08.888Z,8.40
2023-04-07T05:34:36.025Z,8.40
2023-04-07T05:37:02.656Z,8.40
2023-04-07T05:39:29.292Z,8.50
2023-04-07T05:41:57.641Z,8.50
2023-04-07T05:44:24.357Z,8.50
2023-04-07T05:46:51.073Z,8.50
2023-04-07T05:49:19.950Z,8.40
2023-04-07T05:51:48.811Z,8.50
2023-04-07T05:54:15.982Z,8.50
2023-04-07T05:56:42.608Z,8.50
2023-04-07T05:59:09.990Z,8.50
2023-04-07T06:01:36.799Z,8.50
2023-04-07T06:04:04.287Z,8.50
2023-04-07T06:06:31.320Z,8.50
2023-04-07T06:08:58.069Z,8.50
2023-04-07T06:11:25.186Z,8.60
2023-04-07T06:13:52.164Z,8.50
2023-04-07T06:16:19.714Z,8.60
2023-04-07T06:18:46.733Z,8.60
2023-04-07T06:21:14.203Z,8.60
2023-04-07T06:23:41.058Z,8.50
2023-04-07T06:26:11.956Z,8.50
2023-04-07T06:28:39.595Z,8.50
2023-04-07T06:31:07.392Z,8.60
2023-04-07T06:33:34.182Z,8.50
2023-04-07T06:36:00.808Z,8.50
2023-04-07T06:38:27.503Z,8.50
2023-04-07T06:40:54.180Z,8.50
2023-04-07T06:43:20.955Z,8.50
2023-04-07T06:45:47.681Z,8.60
2023-04-07T06:48:14.365Z,8.50
2023-04-07T06:50:41.211Z,8.60
2023-04-07T06:53:07.837Z,8.60
2023-04-07T06:55:34.550Z,8.60
2023-04-07T06:58:01.195Z,8.60
2023-04-07T07:00:30.233Z,8.60
2023-04-07T07:02:57.296Z,8.60
2023-04-07T07:05:24.439Z,8.70
2023-04-07T07:07:51.982Z,8.70
2023-04-07T07:10:20.507Z,8.70
2023-04-07T07:12:47.103Z,8.70
2023-04-07T07:15:13.829Z,8.80
2023-04-07T07:17:40.601Z,8.80
2023-04-07T07:20:07.918Z,8.80
2023-04-07T07:22:34.527Z,8.90
2023-04-07T07:25:01.340Z,8.80
2023-04-07T07:27:28.035Z,8.90
2023-04-07T07:29:54.681Z,8.80
2023-04-07T07:32:21.457Z,8.80
2023-04-07T07:34:48.125Z,8.90
2023-04-07T07:37:14.774Z,9.00
2023-04-07T07:39:41.520Z,8.90
2023-04-07T07:42:08.186Z,8.90
2023-04-07T07:44:34.807Z,9.00
2023-04-07T07:47:01.485Z,8.90
2023-04-07T07:49:28.126Z,8.90
2023-04-07T07:51:54.809Z,8.90
2023-04-07T07:54:21.469Z,8.90
2023-04-07T07:56:48.094Z,9.00
2023-04-07T07:59:16.103Z,9.00
2023-04-07T08:01:43.944Z,9.00
2023-04-07T08:04:11.058Z,9.10
2023-04-07T08:06:37.869Z,9.10
2023-04-07T08:09:06.125Z,9.20
2023-04-07T08:11:32.844Z,9.20
2023-04-07T08:13:59.483Z,9.20
2023-04-07T08:16:27.030Z,9.20
2023-04-07T08:18:53.771Z,9.20
2023-04-07T08:21:21.024Z,9.30
2023-04-07T08:23:47.918Z,9.20
2023-04-07T08:26:14.971Z,9.10
2023-04-07T08:28:42.808Z,9.20
2023-04-07T08:31:09.493Z,9.30
2023-04-07T08:33:36.144Z,9.30
2023-04-07T08:36:03.030Z,9.30
2023-04-07T08:38:29.790Z,9.30
2023-04-07T08:41:03.091Z,9.20
2023-04-07T08:43:30.287Z,9.30
2023-04-07T08:45:58.110Z,9.30
2023-04-07T08:48:29.999Z,9.30
2023-04-07T08:50:57.692Z,9.30
2023-04-07T08:53:31.402Z,9.20
2023-04-07T08:55:58.539Z,9.20
2023-04-07T08:58:25.992Z,9.30
2023-04-07T09:00:53.254Z,9.20
2023-04-07T09:03:20.990Z,9.30
2023-04-07T09:05:49.093Z,9.20
2023-04-07T09:08:15.677Z,9.20
2023-04-07T09:10:42.450Z,9.30
2023-04-07T09:13:09.305Z,9.40
2023-04-07T09:15:38.398Z,9.40
2023-04-07T09:18:05.744Z,9.50
2023-04-07T09:21:01.458Z,9.50
2023-04-07T09:23:33.419Z,9.50
2023-04-07T09:26:01.767Z,9.60
2023-04-07T09:28:55.737Z,9.60
2023-04-07T09:31:26.179Z,9.60
2023-04-07T09:33:53.340Z,9.60
2023-04-07T09:36:20.446Z,9.70
2023-04-07T09:38:47.117Z,9.70
2023-04-07T09:41:16.409Z,9.80
2023-04-07T09:43:45.374Z,9.60
2023-04-07T09:46:14.806Z,9.80
2023-04-07T09:48:43.622Z,9.90
2023-04-07T09:51:12.029Z,9.90
2023-04-07T09:53:52.524Z,9.80
2023-04-07T09:56:22.256Z,9.80
2023-04-07T09:58:51.898Z,9.80
2023-04-07T10:01:18.952Z,9.90
2023-04-07T10:03:47.861Z,9.80
2023-04-07T10:06:16.465Z,9.80
2023-04-07T10:08:43.633Z,10.00
2023-04-07T10:11:10.832Z,9.90
2023-04-07T10:13:39.758Z,9.90
2023-04-07T10:16:07.743Z,9.90
2023-04-07T10:18:35.925Z,9.90
2023-04-07T10:21:05.047Z,10.00
2023-04-07T10:23:39.797Z,9.80
2023-04-07T10:26:07.787Z,9.90
2023-04-07T10:28:38.760Z,9.90
2023-04-07T10:31:06.076Z,9.70
2023-04-07T10:33:50.652Z,9.80
2023-04-07T10:36:19.813Z,9.90
2023-04-07T10:39:08.389Z,9.90
2023-04-07T10:41:36.860Z,10.00
2023-04-07T10:44:08.845Z,10.00
2023-04-07T10:47:01.502Z,10.00
2023-04-07T10:49:29.019Z,10.10
2023-04-07T10:52:28.177Z,10.10
2023-04-07T10:55:30.006Z,10.20
2023-04-07T10:58:25.122Z,10.40
2023-04-07T11:01:06.759Z,10.50
2023-04-07T11:03:35.905Z,10.60
2023-04-07T11:06:10.556Z,10.50
2023-04-07T11:08:42.298Z,10.40
2023-04-07T11:11:11.455Z,10.40
2023-04-07T11:13:49.583Z,10.50
2023-04-07T11:16:18.460Z,10.60
2023-04-07T11:18:47.945Z,10.50
2023-04-07T11:21:19.547Z,10.50
2023-04-07T11:23:47.671Z,10.50
2023-04-07T11:26:16.161Z,10.50
2023-04-07T11:28:54.126Z,10.50
2023-04-07T11:31:29.267Z,10.60
2023-04-07T11:33:57.445Z,10.50
2023-04-07T11:36:32.384Z,10.60
2023-04-07T11:39:00.595Z,10.50
2023-04-07T11:41:30.557Z,10.70
2023-04-07T11:44:05.549Z,10.60
2023-04-07T11:46:32.306Z,10.50
2023-04-07T11:49:13.053Z,10.40
2023-04-07T11:51:41.279Z,10.50
2023-04-07T11:54:08.106Z,10.60
2023-04-07T11:56:46.094Z,10.60
2023-04-07T11:59:24.297Z,10.80
2023-04-07T12:01:53.520Z,10.80
2023-04-07T12:04:22.202Z,10.80
2023-04-07T12:06:49.461Z,10.90
2023-04-07T12:09:31.143Z,11.00
2023-04-07T12:11:58.470Z,11.10
2023-04-07T12:14:26.342Z,11.00
2023-04-07T12:16:56.060Z,11.00
2023-04-07T12:19:24.002Z,11.00
2023-04-07T12:21:50.683Z,11.00
2023-04-07T12:24:17.812Z,11.00
2023-04-07T12:26:44.950Z,10.90
2023-04-07T12:29:11.623Z,10.90
2023-04-07T12:31:38.277Z,10.90
2023-04-07T12:34:05.122Z,10.90
2023-04-07T12:36:31.823Z,11.00
2023-04-07T12:38:59.004Z,11.10
2023-04-07T12:41:25.799Z,11.10
2023-04-07T12:43:52.705Z,11.10
2023-04-07T12:46:21.234Z,11.10
2023-04-07T12:48:48.082Z,11.10
2023-04-07T12:51:15.004Z,11.10
2023-04-07T12:53:41.748Z,11.00
2023-04-07T12:56:08.478Z,10.90
2023-04-07T12:58:35.070Z,10.90
2023-04-07T13:01:01.824Z,10.90
2023-04-07T13:03:28.738Z,10.80
2023-04-07T13:05:55.814Z,10.90
2023-04-07T13:08:22.485Z,10.90
2023-04-07T13:10:49.148Z,11.00
2023-04-07T13:13:16.008Z,11.00
2023-04-07T13:15:42.607Z,11.00
2023-04-07T13:18:09.265Z,11.00
2023-04-07T13:20:36.004Z,11.10
2023-04-07T13:23:08.203Z,11.10
2023-04-07T13:25:37.510Z,11.00
2023-04-07T13:28:04.372Z,11.00
2023-04-07T13:30:31.164Z,11.10
2023-04-07T13:32:58.056Z,11.00
2023-04-07T13:35:24.702Z,11.10
2023-04-07T13:37:51.370Z,11.00
2023-04-07T13:40:18.174Z,10.90
2023-04-07T13:42:44.816Z,11.00
2023-04-07T13:45:11.484Z,11.10
2023-04-07T13:47:38.510Z,11.20
2023-04-07T13:50:05.688Z,11.20
2023-04-07T13:52:35.102Z,11.10
2023-04-07T13:55:03.721Z,11.20
2023-04-07T13:57:30.385Z,11.20
2023-04-07T13:59:57.112Z,11.30
2023-04-07T14:02:24.680Z,11.20
2023-04-07T14:04:52.038Z,11.20
2023-04-07T14:07:18.688Z,11.20
2023-04-07T14:09:46.255Z,11.10
2023-04-07T14:12:13.006Z,11.20
2023-04-07T14:14:39.655Z,11.20
2023-04-07T14:17:06.592Z,11.20
2023-04-07T14:19:33.499Z,11.20
2023-04-07T14:22:00.387Z,11.00
2023-04-07T14:24:27.220Z,11.00
2023-04-07T14:26:54.646Z,10.90
2023-04-07T14:29:22.207Z,11.00
2023-04-07T14:31:48.821Z,10.90
2023-04-07T14:34:15.683Z,10.80
2023-04-07T14:36:53.332Z,10.70
2023-04-07T14:39:20.227Z,10.70
2023-04-07T14:41:47.883Z,10.80
2023-04-07T14:44:14.602Z,10.80
2023-04-07T14:46:42.522Z,10.90
2023-04-07T14:49:09.653Z,10.70
2023-04-07T14:51:36.339Z,10.70
2023-04-07T14:54:03.137Z,10.70
2023-04-07T14:56:29.751Z,10.70
2023-04-07T14:58:56.374Z,10.70
2023-04-07T15:01:23.129Z,10.70
2023-04-07T15:03:52.136Z,10.70
2023-04-07T15:06:19.429Z,10.80
2023-04-07T15:08:46.105Z,10.60
2023-04-07T15:11:13.217Z,10.60
2023-04-07T15:13:39.927Z,10.60
2023-04-07T15:16:10.521Z,10.80
2023-04-07T15:18:39.817Z,10.70
2023-04-07T15:21:07.121Z,10.70
2023-04-07T15:23:34.012Z,10.60
2023-04-07T15:26:00.978Z,10.50
2023-04-07T15:28:27.600Z,10.60
2023-04-07T15:30:54.262Z,10.60
2023-04-07T15:33:20.988Z,10.60
2023-04-07T15:35:47.653Z,10.60
2023-04-07T15:38:14.441Z,10.60
2023-04-07T15:40:41.672Z,10.50
2023-04-07T15:43:11.010Z,10.50
2023-04-07T15:45:42.496Z,10.50
2023-04-07T15:48:10.278Z,10.50
2023-04-07T15:50:37.552Z,10.60
2023-04-07T15:53:04.912Z,10.50
2023-04-07T15:55:35.713Z,10.40
2023-04-07T15:58:03.142Z,10.40
2023-04-07T16:00:32.842Z,10.30
2023-04-07T16:03:01.176Z,10.40
2023-04-07T16:05:27.910Z,10.30
2023-04-07T16:07:54.658Z,10.10
2023-04-07T16:10:21.395Z,10.00
2023-04-07T16:12:48.518Z,10.00
2023-04-07T16:15:20.509Z,10.10
2023-04-07T16:17:49.892Z,10.00
2023-04-07T16:20:16.693Z,9.90
2023-04-07T16:22:48.423Z,9.90
2023-04-07T16:25:16.513Z,9.90
2023-04-07T16:27:44.890Z,9.90
2023-04-07T16:30:13.871Z,10.00
2023-04-07T16:32:44.631Z,9.90
2023-04-07T16:35:12.075Z,10.00
2023-04-07T16:37:39.965Z,10.00
2023-04-07T16:40:08.942Z,10.00
2023-04-07T16:42:36.478Z,10.00
2023-04-07T16:45:03.460Z,10.00
2023-04-07T16:47:31.194Z,9.90
2023-04-07T16:49:58.764Z,9.90
2023-04-07T16:52:25.458Z,10.00
2023-04-07T16:54:52.472Z,9.90
2023-04-07T16:57:19.145Z,10.00
2023-04-07T16:59:46.422Z,9.90
2023-04-07T17:02:16.278Z,9.90
2023-04-07T17:04:43.961Z,10.00
2023-04-07T17:07:11.544Z,9.90
2023-04-07T17:09:38.650Z,9.90
2023-04-07T17:12:08.422Z,9.90
2023-04-07T17:14:35.106Z,10.00
2023-04-07T17:17:02.333Z,10.00
2023-04-07T17:19:29.106Z,9.90
2023-04-07T17:21:56.117Z,9.90
2023-04-07T17:24:23.021Z,9.90
2023-04-07T17:26:49.686Z,9.90
2023-04-07T17:29:17.296Z,9.90
2023-04-07T17:31:44.119Z,9.90
2023-04-07T17:34:11.314Z,9.90
2023-04-07T17:36:38.229Z,9.90
2023-04-07T17:39:05.364Z,9.90
2023-04-07T17:41:35.042Z,9.90
2023-04-07T17:44:02.241Z,9.80
2023-04-07T17:46:29.709Z,9.80
2023-04-07T17:48:59.760Z,9.80
2023-04-07T17:51:26.940Z,9.80
2023-04-07T17:53:54.270Z,9.70
2023-04-07T17:56:21.678Z,9.70
2023-04-07T17:58:48.535Z,9.70
2023-04-07T18:01:16.655Z,9.70
2023-04-07T18:03:44.060Z,9.80
2023-04-07T18:06:16.670Z,9.70
2023-04-07T18:08:46.408Z,9.70
2023-04-07T18:11:13.342Z,9.70
2023-04-07T18:13:40.294Z,9.80
2023-04-07T18:16:09.597Z,9.70
2023-04-07T18:18:38.089Z,9.80
2023-04-07T18:21:06.333Z,9.60
2023-04-07T18:23:32.932Z,9.60
2023-04-07T18:26:04.678Z,9.70
2023-04-07T18:28:31.530Z,9.60
2023-04-07T18:31:03.900Z,9.70
2023-04-07T18:33:32.872Z,9.70
2023-04-07T18:36:02.400Z,9.80
2023-04-07T18:38:29.139Z,9.80
2023-04-07T18:40:55.928Z,9.80
2023-04-07T18:43:22.617Z,9.70
2023-04-07T18:45:49.266Z,9.80
2023-04-07T18:48:16.028Z,9.70
2023-04-07T18:50:42.710Z,9.80
2023-04-07T18:53:09.345Z,9.80
2023-04-07T18:55:36.473Z,9.70
2023-04-07T18:58:03.841Z,9.60
2023-04-07T19:00:30.536Z,9.70
2023-04-07T19:02:57.330Z,9.60
2023-04-07T19:05:25.886Z,9.60
2023-04-07T19:07:52.678Z,9.70
2023-04-07T19:10:19.395Z,9.70
2023-04-07T19:12:46.065Z,9.70
2023-04-07T19:15:12.730Z,9.70
2023-04-07T19:17:39.639Z,9.70
2023-04-07T19:20:07.392Z,9.70
2023-04-07T19:22:34.363Z,9.70
2023-04-07T19:25:01.043Z,9.70
2023-04-07T19:27:27.683Z,9.70
2023-04-07T19:29:54.329Z,9.70
2023-04-07T19:32:21.050Z,9.60
2023-04-07T19:34:47.725Z,9.60
2023-04-07T19:37:14.408Z,9.60
2023-04-07T19:39:46.911Z,9.60
2023-04-07T19:42:18.956Z,9.60
2023-04-07T19:44:45.787Z,9.50
2023-04-07T19:47:12.528Z,9.50
2023-04-07T19:49:39.206Z,9.50
2023-04-07T19:52:06.016Z,9.50
2023-04-07T19:54:32.684Z,9.50
2023-04-07T19:56:59.356Z,9.50
2023-04-07T19:59:26.204Z,9.50
2023-04-07T20:01:52.981Z,9.50
2023-04-07T20:04:19.965Z,9.50
2023-04-07T20:06:46.610Z,9.60
2023-04-07T20:09:13.214Z,9.50
2023-04-07T20:11:39.870Z,9.50
2023-04-07T20:14:06.479Z,9.60
2023-04-07T20:16:33.236Z,9.60
2023-04-07T20:18:59.962Z,9.60
2023-04-07T20:21:27.367Z,9.60
2023-04-07T20:23:53.973Z,9.50
2023-04-07T20:26:22.123Z,9.60
2023-04-07T20:28:49.145Z,9.60
2023-04-07T20:31:16.177Z,9.50
2023-04-07T20:33:42.818Z,9.50
2023-04-07T20:36:09.387Z,9.50
2023-04-07T20:38:36.212Z,9.50
2023-04-07T20:41:02.951Z,9.50
2023-04-07T20:43:29.658Z,9.50
2023-04-07T20:45:57.985Z,9.60
2023-04-07T20:48:24.764Z,9.60
2023-04-07T20:50:52.017Z,9.50
2023-04-07T20:53:19.597Z,9.50
2023-04-07T20:55:47.385Z,9.40
2023-04-07T20:58:14.110Z,9.50
2023-04-07T21:00:40.759Z,9.50
2023-04-07T21:03:07.618Z,9.50
2023-04-07T21:05:34.486Z,9.50
2023-04-07T21:08:01.331Z,9.50
2023-04-07T21:10:28.313Z,9.40
2023-04-07T21:12:54.930Z,9.50
2023-04-07T21:15:21.591Z,9.50
2023-04-07T21:17:48.286Z,9.50
2023-04-07T21:20:14.933Z,9.50
2023-04-07T21:22:41.583Z,9.50
2023-04-07T21:25:08.728Z,9.50
2023-04-07T21:27:36.176Z,9.50
2023-04-07T21:30:06.852Z,9.50
2023-04-07T21:32:33.555Z,9.50
2023-04-07T21:35:00.821Z,9.50
2023-04-07T21:37:27.649Z,9.50
2023-04-07T21:39:54.671Z,9.50
2023-04-07T21:42:22.412Z,9.50
2023-04-07T21:44:49.102Z,9.50
2023-04-07T21:47:15.926Z,9.50
2023-04-07T21:49:42.590Z,9.40
2023-04-07T21:52:09.297Z,9.40
2023-04-07T21:54:36.486Z,9.50
2023-04-07T21:57:03.422Z,9.40
2023-04-07T21:59:30.100Z,9.40
2023-04-07T22:01:57.344Z,9.50
2023-04-07T22:04:24.143Z,9.50
2023-04-07T22:06:50.842Z,9.50
2023-04-07T22:09:17.595Z,9.40
2023-04-07T22:11:44.226Z,9.40
2023-04-07T22:14:10.950Z,9.50
2023-04-07T22:16:37.641Z,9.40
2023-04-07T22:19:04.404Z,9.40
2023-04-07T22:21:31.462Z,9.50
2023-04-07T22:23:58.376Z,9.50
2023-04-07T22:26:25.558Z,9.40
2023-04-07T22:28:52.206Z,9.40
2023-04-07T22:31:18.820Z,9.40
2023-04-07T22:33:45.457Z,9.40
2023-04-07T22:36:12.050Z,9.50
2023-04-07T22:38:38.627Z,9.40
2023-04-07T22:41:05.391Z,9.50
2023-04-07T22:43:32.028Z,9.40
2023-04-07T22:45:58.641Z,9.40
2023-04-07T22:48:25.294Z,9.40
2023-04-07T22:50:51.986Z,9.40
2023-04-07T22:53:18.583Z,9.50
2023-04-07T22:55:45.429Z,9.50
2023-04-07T22:58:12.051Z,9.50
2023-04-07T23:00:38.913Z,9.50
2023-04-07T23:03:05.724Z,9.40
2023-04-07T23:05:32.449Z,9.40
2023-04-07T23:07:59.100Z,9.50
2023-04-07T23:10:25.779Z,9.40
2023-04-07T23:12:53.977Z,9.40
2023-04-07T23:15:20.934Z,9.40
2023-04-07T23:17:47.730Z,9.40
2023-04-07T23:20:14.480Z,9.40
2023-04-07T23:22:41.125Z,9.40
2023-04-07T23:25:08.129Z,9.40
2023-04-07T23:27:34.707Z,9.40
2023-04-07T23:30:01.603Z,9.40
2023-04-07T23:32:28.703Z,9.40
2023-04-07T23:34:55.402Z,9.30
2023-04-07T23:37:22.058Z,9.30
2023-04-07T23:39:48.697Z,9.30
2023-04-07T23:42:15.424Z,9.30
2023-04-07T23:44:42.089Z,9.20
2023-04-07T23:47:08.680Z,9.10
2023-04-07T23:49:35.301Z,9.10
2023-04-07T23:52:02.500Z,9.00
2023-04-07T23:54:29.222Z,9.00
2023-04-07T23:56:56.988Z,9.00
2023-04-07T23:59:23.723Z,8.90
